Time,TemperatureF,DewpointF,PressureIn,WindDirection,WindDirectionDegrees,WindSpeedMPH,WindSpeedGustMPH,Humidity,HourlyPrecipIn,Conditions,Clouds,dailyrainin,SoftwareType,DateUTC
2013-03-15 00:01:00,33.8,28.6,30.00,SW,225,0.0,2.3,81,0.00,OVC,FEW,0.00,WeatherDisplay:10.37,2013-03-15 05:01:00,
2013-03-15 00:07:00,34.0,28.8,30.00,SW,225,0.0,0.0,81,0.00,OVC,FEW,0.00,WeatherDisplay:10.37,2013-03-15 05:07:00,
2013-03-15 00:13:00,34.2,28.9,29.99,South,180,0.0,0.0,81,0.00,OVC,FEW,0.00,WeatherDisplay:10.37,2013-03-15 05:13:00,
2013-03-15 00:18:00,34.0,28.5,30.00,SW,225,0.0,0.0,80,0.00,OVC,FEW,0.00,WeatherDisplay:10.37,2013-03-15 05:18:00,
2013-03-15 00:24:00,33.8,28.3,29.99,SW,225,0.0,0.0,80,0.00,OVC,FEW,0.00,WeatherDisplay:10.37,2013-03-15 05:24:00,
2013-03-15 00:29:00,33.6,28.4,30.00,West,270,0.0,1.2,81,0.00,OVC,FEW,0.00,WeatherDisplay:10.37,2013-03-15 05:29:00,
2013-03-15 00:35:00,33.8,28.9,30.00,SW,225,0.0,1.2,82,0.00,OVC,FEW,0.00,WeatherDisplay:10.37,2013-03-15 05:35:00,
2013-03-15 00:41:00,33.8,28.9,30.00,SW,225,0.0,0.0,82,0.00,OVC,FEW,0.00,WeatherDisplay:10.37,2013-03-15 05:41:00,
2013-03-15 00:46:00,33.6,28.7,29.99,SW,225,0.0,0.0,82,0.00,OVC,FEW,0.00,WeatherDisplay:10.37,2013-03-15 05:46:00,
2013-03-15 00:52:00,33.3,28.1,29.99,SW,225,0.0,0.0,81,0.00,OVC,FEW,0.00,WeatherDisplay:10.37,2013-03-15 05:52:00,
2013-03-15 00:57:00,33.1,28.2,29.99,South,180,0.0,0.0,82,0.00,OVC,FEW,0.00,WeatherDisplay:10.37,2013-03-15 05:57:00,
2013-03-15 01:03:00,33.4,28.8,29.99,SE,135,0.0,0.0,83,0.00,OVC,FEW,0.00,WeatherDisplay:10.37,2013-03-15 06:03:00,
2013-03-15 01:09:00,32.7,27.8,29.98,NE,45,0.0,0.0,82,0.00,OVC,FEW,0.00,WeatherDisplay:10.37,2013-03-15 06:09:00,
2013-03-15 01:14:00,32.5,27.7,29.99,NE,45,0.0,0.0,82,0.00,OVC,FEW,0.00,WeatherDisplay:10.37,2013-03-15 06:14:00,
2013-03-15 01:20:00,32.4,27.8,29.98,NE,45,0.0,0.0,83,0.00,OVC,FEW,0.00,WeatherDisplay:10.37,2013-03-15 06:20:00,
2013-03-15 01:25:00,32.4,27.8,29.98,NE,45,0.0,0.0,83,0.00,OVC,FEW,0.00,WeatherDisplay:10.37,2013-03-15 06:25:00,
2013-03-15 01:31:00,32.2,27.6,29.98,NE,45,0.0,0.0,83,0.00,OVC,FEW,0.00,WeatherDisplay:10.37,2013-03-15 06:31:00,
2013-03-15 01:37:00,32.2,27.9,29.97,NE,45,0.0,0.0,84,0.00,OVC,FEW,0.00,WeatherDisplay:10.37,2013-03-15 06:37:00,
2013-03-15 01:42:00,32.0,27.7,29.97,South,180,0.0,0.0,84,0.00,OVC,FEW,0.00,WeatherDisplay:10.37,2013-03-15 06:42:00,
2013-03-15 01:48:00,31.8,27.5,29.96,SE,135,0.0,0.0,84,0.00,OVC,FEW,0.00,WeatherDisplay:10.37,2013-03-15 06:48:00,
2013-03-15 01:53:00,31.8,27.5,29.95,SW,225,0.0,0.0,84,0.00,OVC,FEW,0.00,WeatherDisplay:10.37,2013-03-15 06:53:00,
2013-03-15 01:59:00,32.0,27.7,29.95,South,180,0.0,0.0,84,0.00,OVC,FEW,0.00,WeatherDisplay:10.37,2013-03-15 06:59:00,
2013-03-15 02:05:00,32.0,27.7,29.95,South,180,0.0,1.6,84,0.00,OVC,FEW,0.00,WeatherDisplay:10.37,2013-03-15 07:05:00,
2013-03-15 02:10:00,32.5,28.2,29.95,South,180,0.0,0.0,84,0.00,OVC,FEW,0.00,WeatherDisplay:10.37,2013-03-15 07:10:00,
2013-03-15 02:16:00,32.7,28.4,29.95,SW,225,0.0,0.0,84,0.00,OVC,FEW,0.00,WeatherDisplay:10.37,2013-03-15 07:16:00,
2013-03-15 02:21:00,32.9,28.6,29.94,SW,225,0.0,1.2,84,0.00,OVC,FEW,0.00,WeatherDisplay:10.37,2013-03-15 07:21:00,
2013-03-15 02:27:00,32.9,28.6,29.94,South,180,0.0,0.0,84,0.00,OVC,FEW,0.00,WeatherDisplay:10.37,2013-03-15 07:27:00,
2013-03-15 02:33:00,32.9,28.6,29.95,SW,225,0.0,0.0,84,0.00,OVC,FEW,0.00,WeatherDisplay:10.37,2013-03-15 07:33:00,
2013-03-15 02:38:00,32.5,28.2,29.95,South,180,0.0,0.0,84,0.00,OVC,FEW,0.00,WeatherDisplay:10.37,2013-03-15 07:38:00,
2013-03-15 02:44:00,32.4,28.1,29.94,South,180,0.0,0.0,84,0.00,OVC,FEW,0.00,WeatherDisplay:10.37,2013-03-15 07:44:00,
2013-03-15 02:49:00,32.0,27.7,29.94,South,180,0.0,0.0,84,0.00,OVC,FEW,0.00,WeatherDisplay:10.37,2013-03-15 07:49:00,
2013-03-15 02:55:00,32.0,27.7,29.94,South,180,0.0,0.0,84,0.00,OVC,FEW,0.00,WeatherDisplay:10.37,2013-03-15 07:55:00,
2013-03-15 03:01:00,31.8,27.5,29.94,South,180,0.0,0.0,84,0.00,OVC,FEW,0.00,WeatherDisplay:10.37,2013-03-15 08:01:00,
2013-03-15 03:06:00,31.8,27.5,29.94,South,180,0.0,0.0,84,0.00,OVC,FEW,0.00,WeatherDisplay:10.37,2013-03-15 08:06:00,
2013-03-15 03:12:00,31.8,27.5,29.94,South,180,0.0,0.0,84,0.00,OVC,FEW,0.00,WeatherDisplay:10.37,2013-03-15 08:12:00,
2013-03-15 03:17:00,31.6,27.4,29.94,South,180,0.0,0.0,84,0.00,OVC,FEW,0.00,WeatherDisplay:10.37,2013-03-15 08:17:00,
2013-03-15 03:23:00,31.6,27.4,29.93,NW,315,0.0,0.0,84,0.00,OVC,FEW,0.00,WeatherDisplay:10.37,2013-03-15 08:23:00,
2013-03-15 03:29:00,31.5,27.2,29.93,NW,315,0.0,0.0,84,0.00,OVC,FEW,0.00,WeatherDisplay:10.37,2013-03-15 08:29:00,
2013-03-15 03:34:00,31.5,27.2,29.93,SE,135,0.0,0.0,84,0.00,OVC,FEW,0.00,WeatherDisplay:10.37,2013-03-15 08:34:00,
2013-03-15 03:40:00,31.6,27.4,29.93,SE,135,0.0,0.0,84,0.00,OVC,FEW,0.00,WeatherDisplay:10.37,2013-03-15 08:40:00,
2013-03-15 03:45:00,31.5,27.2,29.92,SE,135,0.0,0.0,84,0.00,OVC,FEW,0.00,WeatherDisplay:10.37,2013-03-15 08:45:00,
2013-03-15 03:51:00,31.3,27.0,29.92,SE,135,0.0,0.0,84,0.00,OVC,FEW,0.00,WeatherDisplay:10.37,2013-03-15 08:51:00,
2013-03-15 03:57:00,31.1,26.8,29.92,SE,135,0.0,0.0,84,0.00,OVC,FEW,0.00,WeatherDisplay:10.37,2013-03-15 08:57:00,
2013-03-15 04:02:00,30.9,26.7,29.91,SE,135,0.0,0.0,84,0.00,OVC,FEW,0.00,WeatherDisplay:10.37,2013-03-15 09:02:00,
2013-03-15 04:08:00,30.9,26.7,29.91,SE,135,0.0,0.0,84,0.00,OVC,FEW,0.00,WeatherDisplay:10.37,2013-03-15 09:08:00,
2013-03-15 04:13:00,30.9,26.7,29.91,SW,225,0.0,0.0,84,0.00,OVC,FEW,0.00,WeatherDisplay:10.37,2013-03-15 09:13:00,
2013-03-15 04:19:00,31.1,26.8,29.91,SE,135,0.0,0.0,84,0.00,OVC,FEW,0.00,WeatherDisplay:10.37,2013-03-15 09:19:00,
2013-03-15 04:25:00,31.1,26.8,29.91,West,270,0.0,1.2,84,0.00,OVC,FEW,0.00,WeatherDisplay:10.37,2013-03-15 09:25:00,
2013-03-15 04:30:00,31.3,27.0,29.91,NW,315,0.7,2.3,84,0.00,OVC,FEW,0.00,WeatherDisplay:10.37,2013-03-15 09:30:00,
2013-03-15 04:37:00,31.6,27.4,29.91,SW,225,0.0,0.0,84,0.00,OVC,FEW,0.00,WeatherDisplay:10.37,2013-03-15 09:37:00,
2013-03-15 04:42:00,32.0,27.7,29.91,SW,225,0.0,0.0,84,0.00,OVC,FEW,0.00,WeatherDisplay:10.37,2013-03-15 09:42:00,
2013-03-15 04:48:00,32.0,27.7,29.91,East,90,0.0,0.0,84,0.00,OVC,FEW,0.00,WeatherDisplay:10.37,2013-03-15 09:48:00,
2013-03-15 04:53:00,31.8,27.5,29.91,East,90,0.0,0.0,84,0.00,OVC,FEW,0.00,WeatherDisplay:10.37,2013-03-15 09:53:00,
2013-03-15 04:59:00,31.6,27.4,29.90,East,90,0.0,0.0,84,0.00,OVC,FEW,0.00,WeatherDisplay:10.37,2013-03-15 09:59:00,
2013-03-15 05:05:00,31.5,27.2,29.90,East,90,0.0,0.0,84,0.00,OVC,FEW,0.00,WeatherDisplay:10.37,2013-03-15 10:05:00,
2013-03-15 05:10:00,31.3,27.0,29.91,East,90,0.0,0.0,84,0.00,OVC,FEW,0.00,WeatherDisplay:10.37,2013-03-15 10:10:00,
2013-03-15 05:16:00,31.3,27.0,29.90,East,90,0.0,0.0,84,0.00,OVC,FEW,0.00,WeatherDisplay:10.37,2013-03-15 10:16:00,
2013-03-15 05:21:00,31.1,26.8,29.90,East,90,0.0,0.0,84,0.00,OVC,FEW,0.00,WeatherDisplay:10.37,2013-03-15 10:21:00,
2013-03-15 05:27:00,30.9,26.7,29.89,East,90,0.0,0.0,84,0.00,OVC,FEW,0.00,WeatherDisplay:10.37,2013-03-15 10:27:00,
2013-03-15 05:33:00,30.6,26.3,29.89,East,90,0.0,0.0,84,0.00,OVC,FEW,0.00,WeatherDisplay:10.37,2013-03-15 10:33:00,
2013-03-15 05:38:00,30.4,26.1,29.89,East,90,0.0,0.0,84,0.00,OVC,FEW,0.00,WeatherDisplay:10.37,2013-03-15 10:38:00,
2013-03-15 05:44:00,30.2,25.9,29.90,West,270,0.0,0.0,84,0.00,OVC,FEW,0.00,WeatherDisplay:10.37,2013-03-15 10:44:00,
2013-03-15 05:49:00,30.0,25.8,29.90,NW,315,0.0,0.0,84,0.00,OVC,FEW,0.00,WeatherDisplay:10.37,2013-03-15 10:49:00,
2013-03-15 05:55:00,29.8,25.6,29.89,South,180,0.0,0.0,84,0.00,OVC,FEW,0.00,WeatherDisplay:10.37,2013-03-15 10:55:00,
2013-03-15 06:01:00,29.7,25.4,29.89,NW,315,0.0,0.0,84,0.00,OVC,FEW,0.00,WeatherDisplay:10.37,2013-03-15 11:01:00,
2013-03-15 06:06:00,29.5,25.2,29.89,NW,315,0.0,0.0,84,0.00,OVC,FEW,0.00,WeatherDisplay:10.37,2013-03-15 11:06:00,
2013-03-15 06:12:00,29.1,24.9,29.90,SW,225,0.0,0.0,84,0.00,OVC,FEW,0.00,WeatherDisplay:10.37,2013-03-15 11:12:00,
2013-03-15 06:17:00,29.1,24.9,29.90,West,270,0.0,0.0,84,0.00,OVC,FEW,0.00,WeatherDisplay:10.37,2013-03-15 11:17:00,
2013-03-15 06:23:00,29.1,24.9,29.90,North,0,0.0,0.0,84,0.00,OVC,FEW,0.00,WeatherDisplay:10.37,2013-03-15 11:23:00,
2013-03-15 06:29:00,29.3,25.1,29.90,East,90,0.0,0.0,84,0.00,OVC,FEW,0.00,WeatherDisplay:10.37,2013-03-15 11:29:00,
2013-03-15 06:34:00,29.3,25.1,29.89,East,90,0.0,0.0,84,0.00,OVC,FEW,0.00,WeatherDisplay:10.37,2013-03-15 11:34:00,
2013-03-15 06:40:00,29.3,25.1,29.89,East,90,0.0,0.0,84,0.00,OVC,FEW,0.00,WeatherDisplay:10.37,2013-03-15 11:40:00,
2013-03-15 06:45:00,28.9,24.7,29.89,East,90,0.0,0.0,84,0.00,OVC,FEW,0.00,WeatherDisplay:10.37,2013-03-15 11:45:00,
2013-03-15 06:51:00,28.9,24.7,29.89,NW,315,0.0,0.0,84,0.00,OVC,FEW,0.00,WeatherDisplay:10.37,2013-03-15 11:51:00,
2013-03-15 06:57:00,29.1,24.9,29.89,West,270,0.0,0.0,84,0.00,OVC,FEW,0.00,WeatherDisplay:10.37,2013-03-15 11:57:00,
2013-03-15 07:02:00,29.5,25.2,29.89,West,270,0.0,0.0,84,0.00,OVC,FEW,0.00,WeatherDisplay:10.37,2013-03-15 12:02:00,
2013-03-15 07:08:00,29.5,25.2,29.90,West,270,0.0,0.0,84,0.00,OVC,FEW,0.00,WeatherDisplay:10.37,2013-03-15 12:08:00,
2013-03-15 07:13:00,29.5,25.2,29.90,North,0,0.0,0.0,84,0.00,OVC,FEW,0.00,WeatherDisplay:10.37,2013-03-15 12:13:00,
2013-03-15 07:19:00,29.7,25.4,29.90,East,90,0.0,0.0,84,0.00,OVC,FEW,0.00,WeatherDisplay:10.37,2013-03-15 12:19:00,
2013-03-15 07:25:00,29.8,25.6,29.91,East,90,0.0,0.0,84,0.00,OVC,FEW,0.00,WeatherDisplay:10.37,2013-03-15 12:25:00,
2013-03-15 07:30:00,29.8,25.6,29.91,NW,315,0.0,0.0,84,0.00,OVC,FEW,0.00,WeatherDisplay:10.37,2013-03-15 12:30:00,
2013-03-15 07:36:00,30.4,26.1,29.91,NW,315,0.0,0.0,84,0.00,OVC,FEW,0.00,WeatherDisplay:10.37,2013-03-15 12:36:00,
2013-03-15 07:41:00,30.6,26.3,29.90,North,0,0.0,0.0,84,0.00,OVC,FEW,0.00,WeatherDisplay:10.37,2013-03-15 12:41:00,
2013-03-15 07:47:00,31.3,27.0,29.91,NW,315,0.0,0.0,84,0.00,OVC,FEW,0.00,WeatherDisplay:10.37,2013-03-15 12:47:00,
2013-03-15 07:53:00,31.5,27.2,29.91,NW,315,0.0,0.7,84,0.00,OVC,FEW,0.00,WeatherDisplay:10.37,2013-03-15 12:53:00,
2013-03-15 07:58:00,31.8,27.5,29.90,NW,315,0.0,0.0,84,0.00,OVC,FEW,0.00,WeatherDisplay:10.37,2013-03-15 12:58:00,
2013-03-15 08:04:00,32.0,27.7,29.91,NW,315,0.0,1.2,84,0.00,OVC,FEW,0.00,WeatherDisplay:10.37,2013-03-15 13:04:00,
2013-03-15 08:09:00,32.0,27.7,29.91,West,270,0.0,0.0,84,0.00,OVC,FEW,0.00,WeatherDisplay:10.37,2013-03-15 13:09:00,
2013-03-15 08:15:00,32.4,28.1,29.91,NW,315,0.0,1.2,84,0.00,OVC,FEW,0.00,WeatherDisplay:10.37,2013-03-15 13:15:00,
2013-03-15 08:21:00,32.9,28.6,29.90,West,270,0.0,0.0,84,0.00,OVC,FEW,0.00,WeatherDisplay:10.37,2013-03-15 13:21:00,
2013-03-15 08:26:00,33.4,29.1,29.91,West,270,0.0,0.0,84,0.00,OVC,FEW,0.00,WeatherDisplay:10.37,2013-03-15 13:26:00,
2013-03-15 08:32:00,34.2,29.8,29.90,SW,225,0.0,0.0,84,0.00,OVC,FEW,0.00,WeatherDisplay:10.37,2013-03-15 13:32:00,
2013-03-15 08:37:00,34.7,30.4,29.91,West,270,0.0,0.0,84,0.00,OVC,FEW,0.00,WeatherDisplay:10.37,2013-03-15 13:37:00,
2013-03-15 08:43:00,34.9,30.5,29.91,NW,315,0.0,0.0,84,0.00,OVC,FEW,0.00,WeatherDisplay:10.37,2013-03-15 13:43:00,
2013-03-15 08:49:00,35.1,30.7,29.91,West,270,0.0,0.0,84,0.00,OVC,FEW,0.00,WeatherDisplay:10.37,2013-03-15 13:49:00,
2013-03-15 08:54:00,35.1,30.7,29.90,North,0,0.0,0.0,84,0.00,OVC,FEW,0.00,WeatherDisplay:10.37,2013-03-15 13:54:00,
2013-03-15 09:00:00,35.2,30.9,29.91,NW,315,0.0,3.5,84,0.00,OVC,FEW,0.00,WeatherDisplay:10.37,2013-03-15 14:00:00,
2013-03-15 09:05:00,35.4,31.1,29.91,West,270,0.0,2.3,84,0.00,OVC,FEW,0.00,WeatherDisplay:10.37,2013-03-15 14:05:00,
2013-03-15 09:11:00,35.8,31.1,29.90,NW,315,0.0,2.2,83,0.00,OVC,FEW,0.00,WeatherDisplay:10.37,2013-03-15 14:11:00,
2013-03-15 09:17:00,36.1,31.2,29.90,West,270,0.0,2.3,82,0.00,OVC,FEW,0.00,WeatherDisplay:10.37,2013-03-15 14:17:00,
2013-03-15 09:22:00,36.3,30.7,29.90,NW,315,0.7,2.3,80,0.00,OVC,FEW,0.00,WeatherDisplay:10.37,2013-03-15 14:22:00,
2013-03-15 09:28:00,36.5,30.9,29.90,North,0,0.0,0.0,80,0.00,OVC,FEW,0.00,WeatherDisplay:10.37,2013-03-15 14:28:00,
2013-03-15 09:33:00,36.9,30.6,29.89,North,0,0.0,2.3,78,0.00,OVC,FEW,0.00,WeatherDisplay:10.37,2013-03-15 14:33:00,
2013-03-15 09:39:00,37.0,30.5,29.89,North,0,0.0,2.3,77,0.00,OVC,FEW,0.00,WeatherDisplay:10.37,2013-03-15 14:39:00,
2013-03-15 09:45:00,37.6,30.7,29.88,North,0,0.0,0.0,76,0.00,OVC,FEW,0.00,WeatherDisplay:10.37,2013-03-15 14:45:00,
2013-03-15 09:50:00,37.9,31.0,29.88,North,0,0.0,0.0,76,0.00,OVC,FEW,0.00,WeatherDisplay:10.37,2013-03-15 14:50:00,
2013-03-15 09:56:00,38.5,30.9,29.87,North,0,0.0,3.5,74,0.00,OVC,FEW,0.00,WeatherDisplay:10.37,2013-03-15 14:56:00,
2013-03-15 10:01:00,38.7,30.7,29.87,East,90,2.2,3.8,73,0.00,OVC,FEW,0.00,WeatherDisplay:10.37,2013-03-15 15:01:00,
2013-03-15 10:07:00,38.8,30.6,29.86,SE,135,2.2,5.4,72,0.00,OVC,FEW,0.00,WeatherDisplay:10.37,2013-03-15 15:07:00,
2013-03-15 10:13:00,39.2,30.6,29.86,ENE,68,0.7,4.6,71,0.00,OVC,FEW,0.00,WeatherDisplay:10.37,2013-03-15 15:13:00,
2013-03-15 10:18:00,39.4,30.4,29.86,NE,45,1.6,4.6,70,0.00,OVC,FEW,0.00,WeatherDisplay:10.37,2013-03-15 15:18:00,
2013-03-15 10:24:00,40.1,31.1,29.86,West,270,0.0,3.5,70,0.00,OVC,FEW,0.00,WeatherDisplay:10.37,2013-03-15 15:24:00,
2013-03-15 10:29:00,41.0,32.0,29.87,West,270,0.0,1.6,70,0.00,OVC,FEW,0.00,WeatherDisplay:10.37,2013-03-15 15:29:00,
2013-03-15 10:35:00,41.2,30.3,29.87,SW,225,1.6,2.3,65,0.00,OVC,FEW,0.00,WeatherDisplay:10.37,2013-03-15 15:35:00,
2013-03-15 10:41:00,40.8,30.3,29.87,West,270,0.0,3.5,66,0.00,OVC,FEW,0.00,WeatherDisplay:10.37,2013-03-15 15:41:00,
2013-03-15 10:46:00,40.5,30.4,29.86,NE,45,0.0,1.2,67,0.00,OVC,FEW,0.00,WeatherDisplay:10.37,2013-03-15 15:46:00,
2013-03-15 10:52:00,40.6,30.2,29.86,SE,135,0.7,3.5,66,0.00,OVC,FEW,0.00,WeatherDisplay:10.37,2013-03-15 15:52:00,
2013-03-15 10:57:00,40.1,29.6,29.85,SE,135,1.6,3.8,66,0.00,OVC,FEW,0.00,WeatherDisplay:10.37,2013-03-15 15:57:00,
2013-03-15 11:03:00,40.1,29.6,29.86,SW,225,2.2,4.5,66,0.00,OVC,FEW,0.00,WeatherDisplay:10.37,2013-03-15 16:03:00,
2013-03-15 11:09:00,40.6,30.2,29.86,SE,135,0.0,3.5,66,0.00,OVC,FEW,0.00,WeatherDisplay:10.37,2013-03-15 16:09:00,
2013-03-15 11:14:00,41.2,29.9,29.87,South,180,0.7,2.2,64,0.00,OVC,FEW,0.00,WeatherDisplay:10.37,2013-03-15 16:14:00,
2013-03-15 11:20:00,41.9,30.6,29.87,South,180,0.7,1.6,64,0.00,OVC,FEW,0.00,WeatherDisplay:10.37,2013-03-15 16:20:00,
2013-03-15 11:25:00,42.8,31.5,29.87,East,90,0.0,1.2,64,0.00,OVC,FEW,0.00,WeatherDisplay:10.37,2013-03-15 16:25:00,
2013-03-15 11:31:00,43.9,32.1,29.88,North,0,0.0,1.2,63,0.00,OVC,FEW,0.00,WeatherDisplay:10.37,2013-03-15 16:31:00,
2013-03-15 11:37:00,44.8,30.5,29.87,West,270,0.0,3.5,57,0.00,OVC,FEW,0.00,WeatherDisplay:10.37,2013-03-15 16:37:00,
2013-03-15 11:42:00,45.0,30.2,29.86,NE,45,1.6,3.1,56,0.00,OVC,FEW,0.00,WeatherDisplay:10.37,2013-03-15 16:42:00,
2013-03-15 11:48:00,44.8,30.5,29.86,SW,225,0.0,2.3,57,0.00,OVC,FEW,0.00,WeatherDisplay:10.37,2013-03-15 16:48:00,
2013-03-15 11:53:00,45.3,30.5,29.85,East,90,1.6,3.5,56,0.00,OVC,FEW,0.00,WeatherDisplay:10.37,2013-03-15 16:53:00,
2013-03-15 11:59:00,45.1,29.9,29.85,NE,45,0.0,3.5,55,0.00,OVC,FEW,0.00,WeatherDisplay:10.37,2013-03-15 16:59:00,
2013-03-15 12:05:00,45.3,30.5,29.85,SE,135,0.0,2.3,56,0.00,OVC,FEW,0.00,WeatherDisplay:10.37,2013-03-15 17:05:00,
2013-03-15 12:10:00,45.3,30.1,29.84,SE,135,0.0,2.3,55,0.00,OVC,FEW,0.00,WeatherDisplay:10.37,2013-03-15 17:10:00,
2013-03-15 12:17:00,45.5,29.8,29.84,SW,225,0.7,3.5,54,0.00,OVC,FEW,0.00,WeatherDisplay:10.37,2013-03-15 17:17:00,
2013-03-15 12:22:00,45.3,29.6,29.84,SW,225,0.7,3.5,54,0.00,OVC,FEW,0.00,WeatherDisplay:10.37,2013-03-15 17:22:00,
2013-03-15 12:28:00,44.8,29.1,29.84,East,90,0.7,3.5,54,0.00,OVC,FEW,0.00,WeatherDisplay:10.37,2013-03-15 17:28:00,
2013-03-15 12:33:00,44.8,30.0,29.83,SE,135,0.7,3.5,56,0.00,OVC,FEW,0.00,WeatherDisplay:10.37,2013-03-15 17:33:00,
2013-03-15 12:39:00,45.0,29.8,29.83,East,90,1.6,4.6,55,0.00,OVC,FEW,0.00,WeatherDisplay:10.37,2013-03-15 17:39:00,
2013-03-15 12:45:00,45.0,29.8,29.82,NE,45,1.6,3.5,55,0.00,OVC,FEW,0.00,WeatherDisplay:10.37,2013-03-15 17:45:00,
2013-03-15 12:50:00,45.1,29.9,29.82,NE,45,0.7,3.5,55,0.00,OVC,FEW,0.00,WeatherDisplay:10.37,2013-03-15 17:50:00,
2013-03-15 12:56:00,45.3,30.5,29.81,South,180,0.0,3.5,56,0.00,OVC,FEW,0.00,WeatherDisplay:10.37,2013-03-15 17:56:00,
2013-03-15 13:02:00,45.9,30.6,29.81,East,90,1.6,3.5,55,0.00,OVC,FEW,0.00,WeatherDisplay:10.37,2013-03-15 18:02:00,
2013-03-15 13:08:00,45.9,29.7,29.81,South,180,0.7,4.6,53,0.00,OVC,FEW,0.00,WeatherDisplay:10.37,2013-03-15 18:08:00,
2013-03-15 13:13:00,46.0,30.3,29.81,SE,135,0.7,3.5,54,0.00,OVC,FEW,0.00,WeatherDisplay:10.37,2013-03-15 18:13:00,
2013-03-15 13:19:00,46.4,30.2,29.82,SE,135,2.2,4.6,53,0.00,OVC,FEW,0.00,WeatherDisplay:10.37,2013-03-15 18:19:00,
2013-03-15 13:25:00,46.6,30.8,29.82,East,90,2.2,5.8,54,0.00,OVC,FEW,0.00,WeatherDisplay:10.37,2013-03-15 18:25:00,
2013-03-15 13:30:00,47.3,31.0,29.82,NE,45,0.7,3.5,53,0.00,OVC,FEW,0.00,WeatherDisplay:10.37,2013-03-15 18:30:00,
2013-03-15 13:37:00,47.7,30.9,29.82,WNW,292,0.7,4.6,52,0.00,OVC,FEW,0.00,WeatherDisplay:10.37,2013-03-15 18:37:00,
2013-03-15 13:42:00,48.0,30.7,29.81,NE,45,1.6,3.8,51,0.00,OVC,FEW,0.00,WeatherDisplay:10.37,2013-03-15 18:42:00,
2013-03-15 13:48:00,48.0,30.2,29.81,ESE,112,2.2,5.4,50,0.00,OVC,FEW,0.00,WeatherDisplay:10.37,2013-03-15 18:48:00,
2013-03-15 13:53:00,47.8,30.1,29.82,SE,135,0.0,4.6,50,0.00,OVC,FEW,0.00,WeatherDisplay:10.37,2013-03-15 18:53:00,
2013-03-15 13:59:00,47.3,29.1,29.81,ENE,68,3.8,6.9,49,0.00,OVC,FEW,0.00,WeatherDisplay:10.37,2013-03-15 18:59:00,
2013-03-15 14:05:00,46.4,29.2,29.81,East,90,3.1,4.5,51,0.00,OVC,FEW,0.00,WeatherDisplay:10.37,2013-03-15 19:05:00,
2013-03-15 14:10:00,46.0,28.9,29.79,East,90,3.1,6.9,51,0.00,OVC,FEW,0.00,WeatherDisplay:10.37,2013-03-15 19:10:00,
2013-03-15 14:17:00,45.7,29.0,29.77,East,90,3.1,5.8,52,0.00,OVC,FEW,0.00,WeatherDisplay:10.37,2013-03-15 19:17:00,
2013-03-15 14:22:00,45.5,28.9,29.78,East,90,1.6,4.6,52,0.00,OVC,FEW,0.00,WeatherDisplay:10.37,2013-03-15 19:22:00,
2013-03-15 14:28:00,45.3,29.2,29.77,NE,45,0.7,6.9,53,0.00,OVC,FEW,0.00,WeatherDisplay:10.37,2013-03-15 19:28:00,
2013-03-15 14:33:00,45.3,30.1,29.77,NE,45,2.2,4.5,55,0.00,OVC,FEW,0.00,WeatherDisplay:10.37,2013-03-15 19:33:00,
2013-03-15 14:39:00,45.5,30.3,29.77,NE,45,1.6,4.5,55,0.00,OVC,FEW,0.00,WeatherDisplay:10.37,2013-03-15 19:39:00,
2013-03-15 14:45:00,45.5,30.7,29.77,NE,45,1.6,5.8,56,0.00,OVC,FEW,0.00,WeatherDisplay:10.37,2013-03-15 19:45:00,
2013-03-15 14:50:00,45.7,31.3,29.77,South,180,0.7,3.5,57,0.00,OVC,FEW,0.00,WeatherDisplay:10.37,2013-03-15 19:50:00,
2013-03-15 14:57:00,45.5,31.1,29.77,SE,135,1.6,5.8,57,0.00,OVC,FEW,0.00,WeatherDisplay:10.37,2013-03-15 19:57:00,
2013-03-15 15:02:00,46.0,32.1,29.76,East,90,3.1,5.8,58,0.00,OVC,FEW,0.00,WeatherDisplay:10.37,2013-03-15 20:02:00,
2013-03-15 15:08:00,45.9,31.9,29.76,North,0,0.7,3.5,58,0.00,OVC,FEW,0.00,WeatherDisplay:10.37,2013-03-15 20:08:00,
2013-03-15 15:13:00,45.7,31.7,29.76,SE,135,2.2,4.6,58,0.00,OVC,FEW,0.00,WeatherDisplay:10.37,2013-03-15 20:13:00,
2013-03-15 15:19:00,46.0,32.1,29.76,East,90,0.7,3.5,58,0.00,OVC,FEW,0.00,WeatherDisplay:10.37,2013-03-15 20:19:00,
2013-03-15 15:25:00,45.5,31.1,29.76,East,90,0.7,4.6,57,0.00,OVC,FEW,0.00,WeatherDisplay:10.37,2013-03-15 20:25:00,
2013-03-15 15:30:00,45.5,31.6,29.75,East,90,2.2,4.6,58,0.00,OVC,FEW,0.00,WeatherDisplay:10.37,2013-03-15 20:30:00,
2013-03-15 15:37:00,45.1,32.1,29.75,SE,135,3.1,5.8,60,0.00,OVC,FEW,0.00,WeatherDisplay:10.37,2013-03-15 20:37:00,
2013-03-15 15:42:00,45.1,32.1,29.75,NE,45,1.6,5.8,60,0.00,OVC,FEW,0.00,WeatherDisplay:10.37,2013-03-15 20:42:00,
2013-03-15 15:48:00,45.3,32.7,29.75,NE,45,0.7,3.5,61,0.00,OVC,FEW,0.00,WeatherDisplay:10.37,2013-03-15 20:48:00,
2013-03-15 15:53:00,45.5,32.4,29.74,SE,135,1.6,3.5,60,0.00,OVC,FEW,0.00,WeatherDisplay:10.37,2013-03-15 20:53:00,
2013-03-15 15:59:00,45.5,32.8,29.75,NE,45,2.2,3.8,61,0.00,OVC,FEW,0.00,WeatherDisplay:10.37,2013-03-15 20:59:00,
2013-03-15 16:05:00,45.7,32.6,29.74,East,90,2.2,4.6,60,0.00,OVC,FEW,0.00,WeatherDisplay:10.37,2013-03-15 21:05:00,
2013-03-15 16:10:00,45.5,32.0,29.74,SE,135,1.6,5.8,59,0.00,OVC,FEW,0.00,WeatherDisplay:10.37,2013-03-15 21:10:00,
2013-03-15 16:17:00,45.9,32.7,29.73,East,90,0.7,3.5,60,0.00,OVC,FEW,0.00,WeatherDisplay:10.37,2013-03-15 21:17:00,
2013-03-15 16:22:00,46.4,32.8,29.73,ENE,68,3.1,5.8,59,0.00,OVC,FEW,0.00,WeatherDisplay:10.37,2013-03-15 21:22:00,
2013-03-15 16:28:00,46.2,32.7,29.72,ENE,68,1.6,4.6,59,0.00,OVC,FEW,0.00,WeatherDisplay:10.37,2013-03-15 21:28:00,
2013-03-15 16:33:00,46.0,32.5,29.72,NE,45,2.2,3.5,59,0.00,OVC,FEW,0.00,WeatherDisplay:10.37,2013-03-15 21:33:00,
2013-03-15 16:39:00,45.9,32.7,29.72,East,90,3.1,5.8,60,0.00,OVC,FEW,0.00,WeatherDisplay:10.37,2013-03-15 21:39:00,
2013-03-15 16:45:00,45.9,33.2,29.70,SE,135,4.5,6.9,61,0.00,OVC,FEW,0.00,WeatherDisplay:10.37,2013-03-15 21:45:00,
2013-03-15 16:50:00,46.0,33.7,29.69,East,90,3.1,5.8,62,0.00,OVC,FEW,0.00,WeatherDisplay:10.37,2013-03-15 21:50:00,
2013-03-15 16:57:00,46.8,34.4,29.70,East,90,1.6,3.8,62,0.00,OVC,FEW,0.00,WeatherDisplay:10.37,2013-03-15 21:57:00,
2013-03-15 17:02:00,47.1,34.4,29.70,NE,45,3.8,8.1,61,0.00,OVC,FEW,0.00,WeatherDisplay:10.37,2013-03-15 22:02:00,
2013-03-15 17:08:00,47.1,34.4,29.70,East,90,2.2,6.0,61,0.00,OVC,FEW,0.00,WeatherDisplay:10.37,2013-03-15 22:08:00,
2013-03-15 17:13:00,46.8,34.0,29.70,NE,45,0.7,6.9,61,0.00,OVC,FEW,0.00,WeatherDisplay:10.37,2013-03-15 22:13:00,
2013-03-15 17:19:00,46.9,34.6,29.71,NE,45,2.2,3.5,62,0.00,OVC,FEW,0.00,WeatherDisplay:10.37,2013-03-15 22:19:00,
2013-03-15 17:25:00,46.6,34.2,29.71,East,90,3.1,6.9,62,0.00,OVC,FEW,0.00,WeatherDisplay:10.37,2013-03-15 22:25:00,
2013-03-15 17:30:00,46.4,34.5,29.70,NE,45,2.2,5.8,63,0.00,OVC,FEW,0.00,WeatherDisplay:10.37,2013-03-15 22:30:00,
2013-03-15 17:37:00,46.4,34.9,29.70,East,90,2.2,8.1,64,0.00,OVC,FEW,0.00,WeatherDisplay:10.37,2013-03-15 22:37:00,
2013-03-15 17:42:00,46.8,35.2,29.70,NE,45,3.1,5.8,64,0.00,OVC,FEW,0.00,WeatherDisplay:10.37,2013-03-15 22:42:00,
2013-03-15 17:48:00,46.9,35.0,29.71,SE,135,3.8,5.4,63,0.00,OVC,FEW,0.00,WeatherDisplay:10.37,2013-03-15 22:48:00,
2013-03-15 17:53:00,46.6,35.0,29.71,NE,45,1.6,4.6,64,0.00,OVC,FEW,0.00,WeatherDisplay:10.37,2013-03-15 22:53:00,
2013-03-15 17:59:00,46.4,34.9,29.71,SE,135,1.6,4.6,64,0.00,OVC,FEW,0.00,WeatherDisplay:10.37,2013-03-15 22:59:00,
2013-03-15 18:05:00,46.6,35.4,29.71,NE,45,0.0,2.3,65,0.00,OVC,FEW,0.00,WeatherDisplay:10.37,2013-03-15 23:05:00,
2013-03-15 18:10:00,46.8,35.2,29.71,East,90,0.7,3.5,64,0.00,OVC,FEW,0.00,WeatherDisplay:10.37,2013-03-15 23:10:00,
2013-03-15 18:16:00,46.6,35.0,29.71,East,90,0.0,3.5,64,0.00,OVC,FEW,0.00,WeatherDisplay:10.37,2013-03-15 23:16:00,
2013-03-15 18:21:00,46.4,34.9,29.71,East,90,1.6,3.8,64,0.00,OVC,FEW,0.00,WeatherDisplay:10.37,2013-03-15 23:21:00,
2013-03-15 18:27:00,46.0,34.9,29.71,East,90,0.7,2.3,65,0.00,OVC,FEW,0.00,WeatherDisplay:10.37,2013-03-15 23:27:00,
2013-03-15 18:33:00,45.9,35.1,29.71,East,90,0.7,2.3,66,0.00,OVC,FEW,0.00,WeatherDisplay:10.37,2013-03-15 23:33:00,
2013-03-15 18:38:00,45.3,35.0,29.71,East,90,0.7,3.5,67,0.00,OVC,FEW,0.00,WeatherDisplay:10.37,2013-03-15 23:38:00,
2013-03-15 18:44:00,44.8,35.2,29.70,East,90,1.6,2.3,69,0.00,OVC,FEW,0.00,WeatherDisplay:10.37,2013-03-15 23:44:00,
2013-03-15 18:49:00,44.8,35.6,29.71,East,90,2.2,5.8,70,0.00,OVC,FEW,0.00,WeatherDisplay:10.37,2013-03-15 23:49:00,
2013-03-15 18:55:00,44.4,35.6,29.71,NE,45,0.7,3.5,71,0.00,OVC,FEW,0.00,WeatherDisplay:10.37,2013-03-15 23:55:00,
2013-03-15 19:01:00,44.2,35.8,29.71,East,90,1.6,3.5,72,0.00,OVC,FEW,0.00,WeatherDisplay:10.37,2013-03-16 00:01:00,
2013-03-15 19:06:00,43.7,35.3,29.71,NE,45,1.6,3.5,72,0.00,OVC,FEW,0.00,WeatherDisplay:10.37,2013-03-16 00:06:00,
2013-03-15 19:12:00,43.5,35.8,29.71,NE,45,1.6,4.5,74,0.00,OVC,FEW,0.00,WeatherDisplay:10.37,2013-03-16 00:12:00,
2013-03-15 19:17:00,43.2,36.1,29.71,East,90,2.2,4.5,76,0.00,OVC,FEW,0.00,WeatherDisplay:10.37,2013-03-16 00:17:00,
2013-03-15 19:23:00,43.0,35.9,29.71,East,90,1.6,4.6,76,0.00,OVC,FEW,0.00,WeatherDisplay:10.37,2013-03-16 00:23:00,
2013-03-15 19:29:00,42.6,35.9,29.70,East,90,1.6,4.6,77,0.00,OVC,FEW,0.00,WeatherDisplay:10.37,2013-03-16 00:29:00,
2013-03-15 19:34:00,42.4,35.7,29.70,NE,45,2.2,5.8,77,0.00,OVC,FEW,0.00,WeatherDisplay:10.37,2013-03-16 00:34:00,
2013-03-15 19:40:00,41.9,35.5,29.70,East,90,3.1,5.8,78,0.00,OVC,FEW,0.00,WeatherDisplay:10.37,2013-03-16 00:40:00,
2013-03-15 19:45:00,41.5,35.5,29.70,NE,45,3.8,6.9,79,0.00,OVC,FEW,0.00,WeatherDisplay:10.37,2013-03-16 00:45:00,
2013-03-15 19:51:00,41.2,35.5,29.71,North,0,1.6,4.6,80,0.00,OVC,FEW,0.00,WeatherDisplay:10.37,2013-03-16 00:51:00,
2013-03-15 19:57:00,40.3,34.6,29.70,East,90,3.1,6.9,80,0.00,OVC,FEW,0.00,WeatherDisplay:10.37,2013-03-16 00:57:00,
2013-03-15 20:02:00,39.7,34.4,29.70,East,90,3.1,8.1,81,0.00,OVC,FEW,0.00,WeatherDisplay:10.37,2013-03-16 01:02:00,
2013-03-15 20:08:00,39.0,34.0,29.70,North,0,3.8,6.9,82,0.00,OVC,FEW,0.00,WeatherDisplay:10.37,2013-03-16 01:08:00,
2013-03-15 20:13:00,38.8,34.1,29.70,NE,45,3.1,8.1,83,0.00,OVC,FEW,0.00,WeatherDisplay:10.37,2013-03-16 01:13:00,
2013-03-15 20:19:00,38.7,33.9,29.70,East,90,3.1,5.8,83,0.00,OVC,FEW,0.00,WeatherDisplay:10.37,2013-03-16 01:19:00,
2013-03-15 20:25:00,38.5,34.1,29.69,East,90,2.2,8.1,84,0.00,OVC,FEW,0.00,WeatherDisplay:10.37,2013-03-16 01:25:00,
2013-03-15 20:30:00,38.3,33.9,29.69,East,90,2.2,8.1,84,0.00,OVC,FEW,0.00,WeatherDisplay:10.37,2013-03-16 01:30:00,
2013-03-15 20:37:00,38.1,33.7,29.70,NE,45,1.6,5.8,84,0.00,OVC,FEW,0.00,WeatherDisplay:10.37,2013-03-16 01:37:00,
2013-03-15 20:42:00,37.9,33.5,29.70,NE,45,3.1,5.8,84,0.00,OVC,FEW,0.00,WeatherDisplay:10.37,2013-03-16 01:42:00,
2013-03-15 20:48:00,37.9,33.5,29.70,North,0,3.1,8.1,84,0.00,OVC,FEW,0.00,WeatherDisplay:10.37,2013-03-16 01:48:00,
2013-03-15 20:53:00,37.8,33.4,29.69,NE,45,2.2,5.8,84,0.00,OVC,FEW,0.00,WeatherDisplay:10.37,2013-03-16 01:53:00,
2013-03-15 20:59:00,37.6,33.2,29.70,SE,135,1.6,8.1,84,0.00,OVC,FEW,0.00,WeatherDisplay:10.37,2013-03-16 01:59:00,
2013-03-15 21:05:00,37.4,33.0,29.70,NW,315,2.2,5.4,84,0.00,OVC,FEW,0.00,WeatherDisplay:10.37,2013-03-16 02:05:00,
2013-03-15 21:10:00,37.2,32.8,29.69,SE,135,3.8,8.1,84,0.00,OVC,FEW,0.00,WeatherDisplay:10.37,2013-03-16 02:10:00,
2013-03-15 21:17:00,37.2,32.8,29.70,East,90,1.6,8.1,84,0.00,OVC,FEW,0.00,WeatherDisplay:10.37,2013-03-16 02:17:00,
2013-03-15 21:22:00,37.0,32.7,29.69,East,90,3.1,8.1,84,0.00,OVC,FEW,0.00,WeatherDisplay:10.37,2013-03-16 02:22:00,
2013-03-15 21:28:00,36.9,32.5,29.69,East,90,3.1,8.1,84,0.00,OVC,FEW,0.00,WeatherDisplay:10.37,2013-03-16 02:28:00,
2013-03-15 21:33:00,36.9,32.5,29.69,East,90,2.2,4.5,84,0.00,OVC,FEW,0.00,WeatherDisplay:10.37,2013-03-16 02:33:00,
2013-03-15 21:39:00,36.7,32.3,29.68,East,90,2.2,4.6,84,0.00,OVC,FEW,0.00,WeatherDisplay:10.37,2013-03-16 02:39:00,
2013-03-15 21:45:00,36.5,32.1,29.68,ENE,68,1.6,6.9,84,0.00,OVC,FEW,0.00,WeatherDisplay:10.37,2013-03-16 02:45:00,
2013-03-15 21:50:00,36.5,32.1,29.68,East,90,1.6,8.1,84,0.00,OVC,FEW,0.00,WeatherDisplay:10.37,2013-03-16 02:50:00,
2013-03-15 21:56:00,36.3,31.9,29.68,ENE,68,1.6,5.8,84,0.00,OVC,FEW,0.00,WeatherDisplay:10.37,2013-03-16 02:56:00,
2013-03-15 22:01:00,36.3,31.9,29.67,East,90,0.7,3.5,84,0.00,OVC,FEW,0.00,WeatherDisplay:10.37,2013-03-16 03:01:00,
2013-03-15 22:07:00,36.3,31.9,29.67,NE,45,3.8,6.9,84,0.00,OVC,FEW,0.00,WeatherDisplay:10.37,2013-03-16 03:07:00,
2013-03-15 22:13:00,36.1,31.8,29.67,East,90,3.8,6.9,84,0.00,OVC,FEW,0.00,WeatherDisplay:10.37,2013-03-16 03:13:00,
2013-03-15 22:18:00,36.1,31.8,29.67,East,90,2.2,5.8,84,0.00,OVC,FEW,0.00,WeatherDisplay:10.37,2013-03-16 03:18:00,
2013-03-15 22:24:00,36.0,31.6,29.67,East,90,3.1,6.0,84,0.00,OVC,FEW,0.00,WeatherDisplay:10.37,2013-03-16 03:24:00,
2013-03-15 22:29:00,36.0,31.6,29.67,East,90,1.6,5.8,84,0.00,OVC,FEW,0.00,WeatherDisplay:10.37,2013-03-16 03:29:00,
2013-03-15 22:35:00,36.0,31.6,29.67,East,90,0.7,4.6,84,0.00,OVC,FEW,0.00,WeatherDisplay:10.37,2013-03-16 03:35:00,
2013-03-15 22:41:00,36.0,31.6,29.67,East,90,1.6,3.5,84,0.00,OVC,FEW,0.00,WeatherDisplay:10.37,2013-03-16 03:41:00,
2013-03-15 22:46:00,36.0,31.6,29.67,East,90,2.2,6.9,84,0.00,OVC,FEW,0.00,WeatherDisplay:10.37,2013-03-16 03:46:00,
2013-03-15 22:52:00,36.0,31.6,29.67,NE,45,0.7,4.6,84,0.00,OVC,FEW,0.00,WeatherDisplay:10.37,2013-03-16 03:52:00,
2013-03-15 22:57:00,36.0,31.6,29.66,NE,45,0.7,2.3,84,0.00,OVC,FEW,0.00,WeatherDisplay:10.37,2013-03-16 03:57:00,
2013-03-15 23:00:00,36.0,31.6,29.66,NE,45,3.8,6.0,84,0.00,OVC,FEW,0.00,WeatherDisplay:10.37,2013-03-16 04:00:00,
2013-03-15 23:01:00,36.0,31.6,29.66,NE,45,3.8,5.8,84,0.00,OVC,FEW,0.00,WeatherDisplay:10.37,2013-03-16 04:01:00,
2013-03-15 23:02:00,35.8,31.4,29.67,NE,45,3.1,5.8,84,0.00,OVC,FEW,0.00,WeatherDisplay:10.37,2013-03-16 04:02:00,
2013-03-15 23:08:00,35.8,31.4,29.67,NE,45,2.2,3.5,84,0.00,OVC,FEW,0.00,WeatherDisplay:10.37,2013-03-16 04:08:00,
2013-03-15 23:11:00,35.8,31.4,29.68,North,0,2.2,5.8,84,0.00,OVC,FEW,0.00,WeatherDisplay:10.37,2013-03-16 04:11:00,
2013-03-15 23:17:00,35.6,31.2,29.66,NE,45,3.1,5.8,84,0.00,OVC,FEW,0.00,WeatherDisplay:10.37,2013-03-16 04:17:00,
2013-03-15 23:22:00,35.6,31.2,29.66,NE,45,2.2,6.9,84,0.00,OVC,FEW,0.00,WeatherDisplay:10.37,2013-03-16 04:22:00,
2013-03-15 23:28:00,35.6,31.2,29.67,NE,45,2.2,4.6,84,0.00,OVC,FEW,0.00,WeatherDisplay:10.37,2013-03-16 04:28:00,
2013-03-15 23:33:00,35.6,31.2,29.66,NE,45,2.2,4.6,84,0.00,OVC,FEW,0.00,WeatherDisplay:10.37,2013-03-16 04:33:00,
2013-03-15 23:39:00,35.6,31.2,29.67,NE,45,4.5,5.8,84,0.00,OVC,FEW,0.00,WeatherDisplay:10.37,2013-03-16 04:39:00,
2013-03-15 23:45:00,35.6,31.2,29.69,NW,315,7.6,10.7,84,0.00,OVC,FEW,0.00,WeatherDisplay:10.37,2013-03-16 04:45:00,
2013-03-15 23:50:00,35.4,31.1,29.69,North,0,4.5,8.1,84,0.00,OVC,FEW,0.00,WeatherDisplay:10.37,2013-03-16 04:50:00,
2013-03-15 23:56:00,35.4,31.1,29.68,NE,45,1.6,3.8,84,0.00,OVC,FEW,0.00,WeatherDisplay:10.37,2013-03-16 04:56:00,